createdAt,value
2018-03-04T00:02:05.199Z,99320.52
2018-03-04T00:04:33.576Z,99314.13
2018-03-04T00:07:01.960Z,99317.61
2018-03-04T00:09:30.373Z,99315.37
2018-03-04T00:11:58.771Z,99314.08
2018-03-04T00:14:27.923Z,99317.02
2018-03-04T00:16:56.448Z,99312.55
2018-03-04T00:19:24.900Z,99314.76
2018-03-04T00:21:53.436Z,99315.31
2018-03-04T00:24:22.870Z,99318.95
2018-03-04T00:26:51.454Z,99318.17
2018-03-04T00:29:19.962Z,99323.52
2018-03-04T00:31:48.359Z,99318.96
2018-03-04T00:34:16.777Z,99311.97
2018-03-04T00:36:45.998Z,99324.13
2018-03-04T00:39:14.504Z,99317.63
2018-03-04T00:41:43.654Z,99321.56
2018-03-04T00:44:13.460Z,99320.67
2018-03-04T00:46:42.611Z,99319.67
2018-03-04T00:49:11.133Z,99328.75
2018-03-04T00:51:39.597Z,99320.14
2018-03-04T00:54:07.997Z,99321.33
2018-03-04T00:56:37.155Z,99331.00
2018-03-04T00:59:05.574Z,99320.11
2018-03-04T01:01:34.104Z,99323.95
2018-03-04T01:04:02.584Z,99329.20
2018-03-04T01:06:30.976Z,99329.33
2018-03-04T01:08:59.400Z,99333.57
2018-03-04T01:11:27.781Z,99326.64
2018-03-04T01:13:56.243Z,99322.47
2018-03-04T01:16:24.691Z,99327.09
2018-03-04T01:18:53.083Z,99325.14
2018-03-04T01:21:21.550Z,99322.48
2018-03-04T01:23:49.929Z,99326.12
2018-03-04T01:26:18.424Z,99317.27
2018-03-04T01:28:46.975Z,99314.73
2018-03-04T01:31:16.152Z,99309.06
2018-03-04T01:33:44.532Z,99307.16
2018-03-04T01:36:13.695Z,99305.98
2018-03-04T01:38:42.094Z,99308.04
2018-03-04T01:41:10.484Z,99302.27
2018-03-04T01:43:39.664Z,99296.86
2018-03-04T01:46:08.044Z,99290.50
2018-03-04T01:48:36.501Z,99286.75
2018-03-04T01:51:05.044Z,99293.86
2018-03-04T01:53:34.207Z,99301.53
2018-03-04T01:56:02.578Z,99293.77
2018-03-04T01:58:30.974Z,99291.71
2018-03-04T02:00:59.347Z,99293.34
2018-03-04T02:03:27.759Z,99289.59
2018-03-04T02:05:56.942Z,99293.92
2018-03-04T02:08:25.349Z,99290.88
2018-03-04T02:10:54.510Z,99290.84
2018-03-04T02:13:22.902Z,99290.55
2018-03-04T02:15:51.612Z,99292.26
2018-03-04T02:18:20.776Z,99291.05
2018-03-04T02:20:49.151Z,99290.29
2018-03-04T02:23:17.577Z,99286.89
2018-03-04T02:25:46.791Z,99285.77
2018-03-04T02:28:15.195Z,99288.33
2018-03-04T02:30:44.716Z,99286.38
2018-03-04T02:33:13.274Z,99279.05
2018-03-04T02:35:41.672Z,99282.94
2018-03-04T02:38:10.283Z,99276.88
2018-03-04T02:40:38.828Z,99279.95
2018-03-04T02:43:07.214Z,99277.83
2018-03-04T02:45:35.614Z,99276.37
2018-03-04T02:48:04.004Z,99276.45
2018-03-04T02:50:32.504Z,99278.70
2018-03-04T02:53:00.883Z,99280.58
2018-03-04T02:55:29.293Z,99275.80
2018-03-04T02:57:57.669Z,99276.15
2018-03-04T03:00:26.865Z,99273.55
2018-03-04T03:02:56.040Z,99269.61
2018-03-04T03:05:24.655Z,99266.39
2018-03-04T03:07:53.045Z,99253.91
2018-03-04T03:10:21.428Z,99253.76
2018-03-04T03:12:49.828Z,99254.33
2018-03-04T03:15:18.241Z,99252.01
2018-03-04T03:17:46.641Z,99247.76
2018-03-04T03:20:15.782Z,99245.16
2018-03-04T03:22:44.179Z,99240.84
2018-03-04T03:25:12.590Z,99245.07
2018-03-04T03:27:41.216Z,99248.95
2018-03-04T03:30:09.625Z,99242.27
2018-03-04T03:32:38.067Z,99241.37
2018-03-04T03:35:06.463Z,99240.91
2018-03-04T03:37:34.847Z,99237.17
2018-03-04T03:40:03.311Z,99236.56
2018-03-04T03:42:32.460Z,99223.33
2018-03-04T03:45:00.858Z,99230.18
2018-03-04T03:47:29.494Z,99220.50
2018-03-04T03:49:57.883Z,99220.03
2018-03-04T03:52:26.366Z,99222.94
2018-03-04T03:54:55.045Z,99220.02
2018-03-04T03:57:23.442Z,99222.34
2018-03-04T03:59:51.815Z,99217.61
2018-03-04T04:02:20.395Z,99218.05
2018-03-04T04:04:48.975Z,99221.52
2018-03-04T04:07:17.384Z,99222.84
2018-03-04T04:09:46.578Z,99222.13
2018-03-04T04:12:14.959Z,99218.38
2018-03-04T04:14:43.360Z,99217.77
2018-03-04T04:17:11.866Z,99215.37
2018-03-04T04:19:41.039Z,99218.72
2018-03-04T04:22:09.447Z,99224.27
2018-03-04T04:24:38.783Z,99217.80
2018-03-04T04:27:07.175Z,99215.05
2018-03-04T04:29:35.552Z,99215.89
2018-03-04T04:32:03.962Z,99210.70
2018-03-04T04:34:32.412Z,99211.69
2018-03-04T04:37:00.995Z,99205.73
2018-03-04T04:39:29.372Z,99209.30
2018-03-04T04:41:57.890Z,99216.66
2018-03-04T04:44:27.058Z,99224.31
2018-03-04T04:46:55.507Z,99219.66
2018-03-04T04:49:24.689Z,99212.49
2018-03-04T04:51:53.850Z,99214.69
2018-03-04T04:54:22.423Z,99208.03
2018-03-04T04:56:50.919Z,99211.88
2018-03-04T04:59:19.346Z,99218.28
2018-03-04T05:01:48.630Z,99210.73
2018-03-04T05:04:17.834Z,99207.23
2018-03-04T05:06:46.210Z,99212.38
2018-03-04T05:09:14.590Z,99207.59
2018-03-04T05:11:43.749Z,99210.25
2018-03-04T05:14:12.215Z,99208.81
2018-03-04T05:16:40.856Z,99205.74
2018-03-04T05:19:10.087Z,99216.77
2018-03-04T05:21:39.390Z,99214.38
2018-03-04T05:24:08.645Z,99213.59
2018-03-04T05:26:37.089Z,99209.81
2018-03-04T05:29:05.484Z,99212.14
2018-03-04T05:31:33.859Z,99216.73
2018-03-04T05:34:02.278Z,99219.48
2018-03-04T05:36:30.714Z,99222.75
2018-03-04T05:38:59.103Z,99222.61
2018-03-04T05:41:27.529Z,99225.51
2018-03-04T05:43:55.935Z,99231.89
2018-03-04T05:46:25.103Z,99237.41
2018-03-04T05:48:53.522Z,99229.56
2018-03-04T05:51:21.919Z,99230.39
2018-03-04T05:53:50.317Z,99231.42
2018-03-04T05:56:18.705Z,99233.13
2018-03-04T05:58:47.122Z,99237.28
2018-03-04T06:01:16.263Z,99233.63
2018-03-04T06:03:44.640Z,99233.73
2018-03-04T06:06:13.146Z,99231.62
2018-03-04T06:08:41.613Z,99234.90
2018-03-04T06:11:11.007Z,99232.24
2018-03-04T06:13:39.394Z,99233.63
2018-03-04T06:16:07.784Z,99232.25
2018-03-04T06:18:36.156Z,99240.44
2018-03-04T06:21:04.531Z,99241.72
2018-03-04T06:23:32.958Z,99238.64
2018-03-04T06:26:02.132Z,99241.56
2018-03-04T06:28:30.536Z,99246.02
2018-03-04T06:30:58.976Z,99245.75
2018-03-04T06:33:27.399Z,99246.14
2018-03-04T06:35:55.760Z,99249.69
2018-03-04T06:38:24.447Z,99249.47
2018-03-04T06:40:53.039Z,99250.00
2018-03-04T06:43:21.501Z,99252.66
2018-03-04T06:45:50.067Z,99248.66
2018-03-04T06:48:18.563Z,99254.05
2018-03-04T06:50:47.101Z,99249.36
2018-03-04T06:53:15.539Z,99252.77
2018-03-04T06:55:44.012Z,99247.67
2018-03-04T06:58:12.401Z,99235.53
2018-03-04T07:00:41.308Z,99239.97
2018-03-04T07:03:09.771Z,99238.98
2018-03-04T07:05:38.257Z,99250.23
2018-03-04T07:08:06.877Z,99253.68
2018-03-04T07:10:35.271Z,99244.26
2018-03-04T07:13:04.011Z,99246.41
2018-03-04T07:15:32.490Z,99233.22
2018-03-04T07:18:00.943Z,99233.52
2018-03-04T07:20:29.602Z,99241.00
2018-03-04T07:22:58.082Z,99244.93
2018-03-04T07:25:27.256Z,99242.13
2018-03-04T07:27:55.638Z,99237.16
2018-03-04T07:30:24.382Z,99233.46
2018-03-04T07:32:52.977Z,99231.01
2018-03-04T07:35:21.410Z,99232.75
2018-03-04T07:37:49.819Z,99233.45
2018-03-04T07:40:18.948Z,99238.87
2018-03-04T07:42:47.429Z,99232.88
2018-03-04T07:45:15.894Z,99236.16
2018-03-04T07:47:44.281Z,99238.00
2018-03-04T07:50:12.701Z,99240.92
2018-03-04T07:52:41.124Z,99239.95
2018-03-04T07:55:10.274Z,99238.37
2018-03-04T07:57:38.784Z,99243.56
2018-03-04T08:00:08.119Z,99246.15
2018-03-04T08:02:37.333Z,99253.87
2018-03-04T08:05:05.725Z,99260.47
2018-03-04T08:07:34.127Z,99262.34
2018-03-04T08:10:02.709Z,99257.95
2018-03-04T08:12:31.124Z,99256.64
2018-03-04T08:15:00.468Z,99255.59
2018-03-04T08:17:28.957Z,99254.44
2018-03-04T08:19:57.396Z,99254.29
2018-03-04T08:22:26.625Z,99256.39
2018-03-04T08:25:12.830Z,99249.58
2018-03-04T08:30:48.926Z,99239.03
2018-03-04T08:33:17.367Z,99239.30
2018-03-04T08:35:46.534Z,99232.50
2018-03-04T08:38:14.974Z,99230.14
2018-03-04T08:40:43.427Z,99227.25
2018-03-04T08:43:13.039Z,99234.05
2018-03-04T08:45:42.262Z,99234.41
2018-03-04T08:48:10.669Z,99234.66
2018-03-04T08:50:39.082Z,99233.70
2018-03-04T08:53:08.444Z,99232.71
2018-03-04T08:55:36.863Z,99240.31
2018-03-04T08:58:06.019Z,99241.63
2018-03-04T09:00:34.527Z,99240.05
2018-03-04T09:03:02.966Z,99239.41
2018-03-04T09:05:31.371Z,99237.78
2018-03-04T09:07:59.787Z,99241.34
2018-03-04T09:10:28.159Z,99240.49
2018-03-04T09:12:56.556Z,99240.17
2018-03-04T09:15:24.993Z,99237.16
2018-03-04T09:17:53.382Z,99232.38
2018-03-04T09:20:21.753Z,99228.28
2018-03-04T09:22:50.446Z,99232.36
2018-03-04T09:25:18.827Z,99222.28
2018-03-04T09:27:47.267Z,99224.98
2018-03-04T09:30:16.464Z,99227.64
2018-03-04T09:32:45.636Z,99226.73
2018-03-04T09:35:14.897Z,99219.62
2018-03-04T09:37:43.322Z,99227.06
2018-03-04T09:40:11.760Z,99233.98
2018-03-04T09:42:40.247Z,99230.41
2018-03-04T09:45:08.630Z,99219.48
2018-03-04T09:47:37.084Z,99217.83
2018-03-04T09:50:05.518Z,99213.59
2018-03-04T09:52:34.105Z,99213.50
2018-03-04T09:55:02.682Z,99208.20
2018-03-04T09:57:32.155Z,99206.42
2018-03-04T10:00:00.577Z,99204.36
2018-03-04T10:02:29.047Z,99202.64
2018-03-04T10:04:57.484Z,99190.74
2018-03-04T10:07:25.936Z,99191.14
2018-03-04T10:09:55.130Z,99191.59
2018-03-04T10:12:24.315Z,99173.93
2018-03-04T10:14:52.756Z,99177.05
2018-03-04T10:17:21.159Z,99176.85
2018-03-04T10:19:49.569Z,99171.27
2018-03-04T10:22:17.972Z,99171.80
2018-03-04T10:24:46.367Z,99173.04
2018-03-04T10:27:15.602Z,99168.31
2018-03-04T10:29:44.042Z,99172.63
2018-03-04T10:32:13.221Z,99169.18
2018-03-04T10:34:42.398Z,99167.87
2018-03-04T10:37:10.857Z,99164.00
2018-03-04T10:39:39.282Z,99164.00
2018-03-04T10:42:07.696Z,99162.00
2018-03-04T10:44:36.128Z,99165.50
2018-03-04T10:47:04.983Z,99168.28
2018-03-04T10:49:33.403Z,99170.03
2018-03-04T10:52:01.809Z,99167.02
2018-03-04T10:54:30.244Z,99173.61
2018-03-04T10:56:58.697Z,99157.95
2018-03-04T10:59:27.913Z,99145.77
2018-03-04T11:02:01.775Z,99145.50
2018-03-04T11:04:30.195Z,99136.36
2018-03-04T11:06:59.595Z,99138.77
2018-03-04T11:09:28.918Z,99139.20
2018-03-04T11:11:57.329Z,99141.27
2018-03-04T11:14:25.775Z,99138.13
2018-03-04T11:16:54.152Z,99132.63
2018-03-04T11:19:23.335Z,99133.38
2018-03-04T11:21:52.613Z,99137.05
2018-03-04T11:24:21.217Z,99130.22
2018-03-04T11:26:50.553Z,99129.19
2018-03-04T11:29:19.024Z,99128.38
2018-03-04T11:31:47.618Z,99124.27
2018-03-04T11:34:16.043Z,99132.31
2018-03-04T11:36:44.442Z,99115.19
2018-03-04T11:39:12.837Z,99119.20
2018-03-04T11:41:42.068Z,99105.62
2018-03-04T11:44:10.474Z,99108.03
2018-03-04T11:46:40.622Z,99102.49
2018-03-04T11:49:09.763Z,99096.72
2018-03-04T11:51:38.201Z,99098.28
2018-03-04T11:54:07.372Z,99091.84
2018-03-04T11:56:35.828Z,99087.56
2018-03-04T11:59:04.203Z,99080.27
2018-03-04T12:01:32.644Z,99078.83
2018-03-04T12:04:01.861Z,99072.70
2018-03-04T12:06:30.379Z,99057.66
2018-03-04T12:08:59.062Z,99057.50
2018-03-04T12:11:27.500Z,99061.50
2018-03-04T12:13:56.750Z,99056.78
2018-03-04T12:16:25.163Z,99048.35
2018-03-04T12:18:53.641Z,99049.09
2018-03-04T12:21:22.097Z,99050.36
2018-03-04T12:23:50.582Z,99043.11
2018-03-04T12:26:19.002Z,99033.47
2018-03-04T12:28:48.156Z,99033.91
2018-03-04T12:31:16.577Z,99029.09
2018-03-04T12:33:45.786Z,99027.97
2018-03-04T12:36:15.126Z,99030.69
2018-03-04T12:38:43.527Z,99023.92
2018-03-04T12:41:11.978Z,99023.36
2018-03-04T12:43:40.385Z,99020.44
2018-03-04T12:46:08.830Z,99014.64
2018-03-04T12:48:37.991Z,99011.36
2018-03-04T12:51:07.385Z,99010.09
2018-03-04T12:53:35.813Z,99003.59
2018-03-04T12:56:04.980Z,99000.86
2018-03-04T12:58:33.420Z,99001.47
2018-03-04T13:01:01.851Z,99001.56
2018-03-04T13:03:31.099Z,99001.86
2018-03-04T13:05:59.712Z,98991.52
2018-03-04T13:08:28.245Z,99002.55
2018-03-04T13:10:57.422Z,98998.62
2018-03-04T13:13:25.861Z,98998.53
2018-03-04T13:15:54.602Z,98982.07
2018-03-04T13:18:23.791Z,98985.05
2018-03-04T13:20:52.246Z,98981.16
2018-03-04T13:23:20.764Z,98984.27
2018-03-04T13:25:50.394Z,98982.98
2018-03-04T13:28:18.840Z,98974.94
2018-03-04T13:30:47.267Z,98971.98
2018-03-04T13:33:15.703Z,98969.09
2018-03-04T13:35:44.112Z,98962.81
2018-03-04T13:38:12.488Z,98967.94
2018-03-04T13:40:40.992Z,98966.12
2018-03-04T13:43:09.426Z,98955.57
2018-03-04T13:45:37.834Z,98957.45
2018-03-04T13:48:06.312Z,98949.37
2018-03-04T13:50:34.720Z,98951.63
2018-03-04T13:53:03.231Z,98949.50
2018-03-04T13:55:32.408Z,98937.28
2018-03-04T13:58:01.644Z,98937.08
2018-03-04T14:00:30.044Z,98937.64
2018-03-04T14:02:58.559Z,98933.38
2018-03-04T14:05:27.019Z,98937.69
2018-03-04T14:07:55.497Z,98941.28
2018-03-04T14:10:23.907Z,98930.92
2018-03-04T14:12:52.483Z,98933.31
2018-03-04T14:15:21.051Z,98929.69
2018-03-04T14:17:49.593Z,98929.67
2018-03-04T14:20:18.825Z,98926.06
2018-03-04T14:22:47.259Z,98926.17
2018-03-04T14:25:15.687Z,98924.70
2018-03-04T14:27:44.863Z,98917.72
2018-03-04T14:30:14.052Z,98923.26
2018-03-04T14:32:43.473Z,98920.57
2018-03-04T14:35:11.860Z,98915.67
2018-03-04T14:37:40.337Z,98914.61
2018-03-04T14:40:08.873Z,98914.90
2018-03-04T14:42:37.301Z,98905.34
2018-03-04T14:45:05.683Z,98899.09
2018-03-04T14:47:34.169Z,98898.30
2018-03-04T14:50:02.583Z,98895.89
2018-03-04T14:52:31.025Z,98877.37
2018-03-04T14:55:00.196Z,98867.92
2018-03-04T14:57:28.745Z,98875.20
2018-03-04T14:59:57.213Z,98870.42
2018-03-04T15:02:25.585Z,98860.89
2018-03-04T15:04:54.010Z,98867.09
2018-03-04T15:07:22.452Z,98860.19
2018-03-04T15:09:50.992Z,98857.77
2018-03-04T15:12:20.215Z,98858.19
2018-03-04T15:14:48.681Z,98857.81
2018-03-04T15:17:17.867Z,98850.06
2018-03-04T15:19:46.316Z,98853.06
2018-03-04T15:22:14.767Z,98846.47
2018-03-04T15:24:43.662Z,98848.88
2018-03-04T15:27:12.918Z,98836.19
2018-03-04T15:29:41.437Z,98839.57
2018-03-04T15:32:10.561Z,98838.67
2018-03-04T15:34:38.990Z,98835.64
2018-03-04T15:37:07.422Z,98839.28
2018-03-04T15:39:36.921Z,98841.92
2018-03-04T15:42:05.526Z,98841.61
2018-03-04T15:44:34.762Z,98838.11
2018-03-04T15:47:03.950Z,98846.70
2018-03-04T15:49:33.450Z,98841.20
2018-03-04T15:52:02.659Z,98844.27
2018-03-04T15:54:31.081Z,98842.36
2018-03-04T15:56:59.549Z,98832.45
2018-03-04T15:59:27.950Z,98832.73
2018-03-04T16:01:56.384Z,98830.48
2018-03-04T16:04:24.800Z,98843.03
2018-03-04T16:06:53.302Z,98836.36
2018-03-04T16:09:21.737Z,98829.88
2018-03-04T16:11:50.366Z,98822.58
2018-03-04T16:14:18.900Z,98814.80
2018-03-04T16:16:48.134Z,98818.38
2018-03-04T16:19:16.540Z,98813.25
2018-03-04T16:21:44.990Z,98801.10
2018-03-04T16:24:13.431Z,98804.72
2018-03-04T16:26:42.652Z,98802.34
2018-03-04T16:29:11.231Z,98804.55
2018-03-04T16:31:39.619Z,98810.04
2018-03-04T16:34:08.003Z,98801.27
2018-03-04T16:36:36.415Z,98800.34
2018-03-04T16:39:04.795Z,98797.81
2018-03-04T16:41:33.225Z,98796.53
2018-03-04T16:44:01.639Z,98803.95
2018-03-04T16:46:30.110Z,98805.64
2018-03-04T16:48:58.595Z,98798.75
2018-03-04T16:51:27.144Z,98798.39
2018-03-04T16:53:55.556Z,98802.64
2018-03-04T16:56:23.968Z,98813.59
2018-03-04T16:58:52.801Z,98816.61
2018-03-04T17:01:21.172Z,98823.07
2018-03-04T17:03:49.620Z,98836.55
2018-03-04T17:06:18.067Z,98829.74
2018-03-04T17:08:47.233Z,98840.73
2018-03-04T17:11:15.627Z,98811.97
2018-03-04T17:13:44.815Z,98817.20
2018-03-04T17:16:13.249Z,98814.31
2018-03-04T17:18:41.643Z,98780.31
2018-03-04T17:21:10.058Z,98788.83
2018-03-04T17:23:38.455Z,98785.86
2018-03-04T17:26:06.832Z,98774.24
2018-03-04T17:28:35.273Z,98768.62
2018-03-04T17:31:03.724Z,98760.04
2018-03-04T17:33:32.128Z,98766.48
2018-03-04T17:36:00.612Z,98768.22
2018-03-04T17:38:29.034Z,98782.78
2018-03-04T17:40:57.446Z,98787.09
2018-03-04T17:43:26.652Z,98784.14
2018-03-04T17:45:55.111Z,98782.83
2018-03-04T17:48:24.363Z,98784.97
2018-03-04T17:50:52.847Z,98780.70
2018-03-04T17:53:21.311Z,98776.34
2018-03-04T17:55:49.831Z,98771.57
2018-03-04T17:58:18.282Z,98783.30
2018-03-04T18:00:47.848Z,98785.06
2018-03-04T18:03:19.924Z,98784.55
2018-03-04T18:05:49.228Z,98785.83
2018-03-04T18:08:17.992Z,98783.23
2018-03-04T18:10:48.105Z,98789.31
2018-03-04T18:15:51.777Z,98786.71
2018-03-04T18:18:21.638Z,98787.66
2018-03-04T18:20:50.818Z,98793.20
2018-03-04T18:23:20.137Z,98794.03
2018-03-04T18:25:48.539Z,98797.08
2018-03-04T18:28:17.078Z,98800.05
2018-03-04T18:30:45.511Z,98781.11
2018-03-04T18:33:13.954Z,98782.11
2018-03-04T18:35:43.124Z,98776.93
2018-03-04T18:38:12.358Z,98768.34
2018-03-04T18:40:40.930Z,98757.55
2018-03-04T18:43:09.368Z,98758.41
2018-03-04T18:45:37.771Z,98746.78
2018-03-04T18:48:06.290Z,98738.14
2018-03-04T18:50:35.441Z,98734.23
2018-03-04T18:53:03.863Z,98733.83
2018-03-04T18:55:33.075Z,98730.38
2018-03-04T18:58:01.550Z,98717.03
2018-03-04T19:00:29.983Z,98719.20
2018-03-04T19:02:59.399Z,98715.75
2018-03-04T19:05:27.785Z,98723.09
2018-03-04T19:07:56.263Z,98716.20
2018-03-04T19:10:24.770Z,98717.09
2018-03-04T19:12:53.172Z,98711.07
2018-03-04T19:15:21.691Z,98711.97
2018-03-04T19:17:50.218Z,98710.24
2018-03-04T19:20:18.666Z,98712.84
2018-03-04T19:22:47.192Z,98702.04
2018-03-04T19:25:15.606Z,98695.16
2018-03-04T19:27:44.035Z,98703.78
2018-03-04T19:30:12.531Z,98692.09
2018-03-04T19:32:40.982Z,98679.30
2018-03-04T19:35:10.942Z,98682.33
2018-03-04T19:37:39.385Z,98678.83
2018-03-04T19:40:08.564Z,98678.38
2018-03-04T19:42:37.151Z,98679.67
2018-03-04T19:45:05.644Z,98686.23
2018-03-04T19:47:35.534Z,98693.11
2018-03-04T19:50:04.085Z,98695.27
2018-03-04T19:52:33.274Z,98706.84
2018-03-04T19:55:01.713Z,98714.66
2018-03-04T19:57:30.280Z,98713.73
2018-03-04T19:59:58.705Z,98712.94
2018-03-04T20:02:27.894Z,98714.66
2018-03-04T20:04:56.563Z,98717.67
2018-03-04T20:07:25.194Z,98728.93
2018-03-04T20:09:53.603Z,98720.70
2018-03-04T20:12:22.095Z,98712.55
2018-03-04T20:14:51.041Z,98698.34
2018-03-04T20:17:19.625Z,98696.55
2018-03-04T20:19:48.841Z,98705.61
2018-03-04T20:22:17.446Z,98711.19
2018-03-04T20:24:47.537Z,98719.39
2018-03-04T20:27:16.101Z,98712.03
2018-03-04T20:29:45.699Z,98720.13
2018-03-04T20:32:14.113Z,98712.38
2018-03-04T20:34:42.545Z,98703.33
2018-03-04T20:37:10.972Z,98689.06
2018-03-04T20:39:40.265Z,98684.38
2018-03-04T20:42:09.705Z,98665.84
2018-03-04T20:44:38.182Z,98687.36
2018-03-04T20:47:06.581Z,98706.36
2018-03-04T20:49:35.066Z,98714.49
2018-03-04T20:52:03.502Z,98723.16
2018-03-04T20:54:32.777Z,98725.70
2018-03-04T20:57:01.326Z,98726.53
2018-03-04T20:59:29.764Z,98738.14
2018-03-04T21:01:59.070Z,98743.77
2018-03-04T21:04:27.524Z,98747.22
2018-03-04T21:06:57.006Z,98752.38
2018-03-04T21:09:25.434Z,98764.02
2018-03-04T21:11:53.842Z,98770.45
2018-03-04T21:14:22.236Z,98777.86
2018-03-04T21:16:50.748Z,98780.81
2018-03-04T21:19:19.431Z,98787.69
2018-03-04T21:21:47.878Z,98789.08
2018-03-04T21:24:16.515Z,98801.53
2018-03-04T21:26:45.171Z,98806.70
2018-03-04T21:29:13.620Z,98807.09
2018-03-04T21:31:42.024Z,98806.69
2018-03-04T21:34:10.547Z,98799.36
2018-03-04T21:36:38.992Z,98804.55
2018-03-04T21:39:07.661Z,98807.53
2018-03-04T21:41:36.189Z,98807.91
2018-03-04T21:44:04.576Z,98801.38
2018-03-04T21:46:32.989Z,98810.76
2018-03-04T21:49:01.392Z,98806.44
2018-03-04T21:51:30.633Z,98808.08
2018-03-04T21:53:59.082Z,98813.17
2018-03-04T21:56:27.550Z,98819.18
2018-03-04T21:58:56.703Z,98817.09
2018-03-04T22:01:25.183Z,98804.55
2018-03-04T22:03:53.852Z,98816.56
2018-03-04T22:06:22.261Z,98814.86
2018-03-04T22:08:50.724Z,98813.57
2018-03-04T22:11:19.260Z,98825.20
2018-03-04T22:13:47.636Z,98822.56
2018-03-04T22:16:16.905Z,98834.23
2018-03-04T22:18:45.340Z,98836.88
2018-03-04T22:21:14.586Z,98848.10
2018-03-04T22:23:43.060Z,98848.50
2018-03-04T22:26:11.707Z,98859.78
2018-03-04T22:28:40.104Z,98862.71
2018-03-04T22:31:08.510Z,98864.50
2018-03-04T22:33:37.006Z,98870.58
2018-03-04T22:36:05.441Z,98877.05
2018-03-04T22:38:34.651Z,98890.42
2018-03-04T22:41:03.086Z,98890.80
2018-03-04T22:43:31.489Z,98901.68
2018-03-04T22:45:59.913Z,98905.61
2018-03-04T22:48:28.334Z,98915.06
2018-03-04T22:50:56.730Z,98919.86
2018-03-04T22:53:28.493Z,98933.72
2018-03-04T22:55:57.143Z,98931.55
2018-03-04T22:58:25.640Z,98932.88
2018-03-04T23:00:54.070Z,98946.27
2018-03-04T23:03:22.446Z,98944.59
2018-03-04T23:05:51.579Z,98944.60
2018-03-04T23:08:19.987Z,98940.34
2018-03-04T23:10:48.382Z,98946.84
2018-03-04T23:13:17.123Z,98940.85
2018-03-04T23:15:45.519Z,98945.16
2018-03-04T23:18:13.888Z,98946.89
2018-03-04T23:20:42.261Z,98952.49
2018-03-04T23:23:11.006Z,98948.19
2018-03-04T23:25:39.547Z,98952.09
2018-03-04T23:28:07.900Z,98947.35
2018-03-04T23:30:37.058Z,98944.77
2018-03-04T23:33:05.465Z,98952.05
2018-03-04T23:35:33.852Z,98951.66
2018-03-04T23:38:03.201Z,98954.70
2018-03-04T23:40:31.771Z,98950.41
2018-03-04T23:43:00.144Z,98958.99
2018-03-04T23:45:28.539Z,98961.98
2018-03-04T23:48:06.862Z,98963.27
2018-03-04T23:50:35.517Z,98968.02
2018-03-04T23:53:04.698Z,98970.59
2018-03-04T23:55:33.865Z,98977.47
2018-03-04T23:58:02.252Z,98981.31
